createdAt,value
2023-08-07T00:04:36.522Z,16.38
2023-08-07T00:09:36.449Z,16.34
2023-08-07T00:14:36.386Z,16.28
2023-08-07T00:19:36.306Z,16.23
2023-08-07T00:24:36.241Z,16.20
2023-08-07T00:29:36.206Z,16.16
2023-08-07T00:34:36.113Z,16.15
2023-08-07T00:39:36.052Z,16.15
2023-08-07T00:44:35.981Z,16.15
2023-08-07T00:49:35.911Z,16.16
2023-08-07T00:54:35.843Z,16.15
2023-08-07T00:59:35.800Z,16.09
2023-08-07T01:04:35.713Z,16.00
2023-08-07T01:09:35.654Z,15.98
2023-08-07T01:14:35.580Z,15.98
2023-08-07T01:19:35.525Z,16.01
2023-08-07T01:24:35.447Z,16.04
2023-08-07T01:29:35.387Z,16.04
2023-08-07T01:34:35.314Z,16.01
2023-08-07T01:39:35.260Z,16.02
2023-08-07T01:44:35.166Z,16.02
2023-08-07T01:49:35.108Z,16.04
2023-08-07T01:54:35.028Z,16.08
2023-08-07T01:59:35.012Z,16.08
2023-08-07T02:04:34.910Z,16.04
2023-08-07T02:09:34.840Z,16.01
2023-08-07T02:14:34.780Z,15.98
2023-08-07T02:19:34.716Z,15.90
2023-08-07T02:24:34.639Z,15.84
2023-08-07T02:29:34.581Z,15.80
2023-08-07T02:34:34.520Z,15.79
2023-08-07T02:39:34.451Z,15.77
2023-08-07T02:44:34.390Z,15.80
2023-08-07T02:49:34.326Z,15.82
2023-08-07T02:54:34.239Z,15.82
2023-08-07T02:59:34.177Z,15.83
2023-08-07T03:04:34.122Z,15.84
2023-08-07T03:09:34.053Z,15.83
2023-08-07T03:14:33.981Z,15.83
2023-08-07T03:19:33.920Z,15.83
2023-08-07T03:24:33.967Z,15.84
2023-08-07T03:29:33.783Z,15.83
2023-08-07T03:34:33.709Z,15.80
2023-08-07T03:39:33.651Z,15.76
2023-08-07T03:44:33.574Z,15.75
2023-08-07T03:49:33.501Z,15.72
2023-08-07T03:54:33.443Z,15.68
2023-08-07T03:59:33.369Z,15.70
2023-08-07T04:04:33.321Z,15.72
2023-08-07T04:09:33.262Z,15.70
2023-08-07T04:14:33.174Z,15.70
2023-08-07T04:19:33.114Z,15.70
2023-08-07T04:24:33.042Z,15.72
2023-08-07T04:29:32.976Z,15.70
2023-08-07T04:34:32.900Z,15.73
2023-08-07T04:39:32.854Z,15.75
2023-08-07T04:44:32.784Z,15.77
2023-08-07T04:49:32.706Z,15.76
2023-08-07T04:54:32.629Z,15.73
2023-08-07T04:59:32.567Z,15.79
2023-08-07T05:04:32.495Z,15.79
2023-08-07T05:09:32.418Z,15.83
2023-08-07T05:14:32.370Z,15.90
2023-08-07T05:19:32.293Z,15.94
2023-08-07T05:24:32.239Z,15.97
2023-08-07T05:29:32.156Z,16.00
2023-08-07T05:34:32.118Z,16.08
2023-08-07T05:39:32.038Z,16.17
2023-08-07T05:44:32.040Z,16.20
2023-08-07T05:49:31.930Z,16.40
2023-08-07T05:54:31.841Z,16.63
2023-08-07T05:59:31.757Z,16.82
2023-08-07T06:04:31.698Z,17.51
2023-08-07T06:09:31.650Z,17.94
2023-08-07T06:14:31.580Z,18.03
2023-08-07T06:19:32.877Z,18.12
2023-08-07T06:24:31.425Z,18.28
2023-08-07T06:29:31.354Z,18.27
2023-08-07T06:34:31.299Z,18.35
2023-08-07T06:39:31.218Z,18.14
2023-08-07T06:44:31.155Z,18.21
2023-08-07T06:49:31.089Z,18.45
2023-08-07T06:54:31.041Z,18.62
2023-08-07T06:59:30.947Z,18.62
2023-08-07T07:04:30.901Z,18.63
2023-08-07T07:09:30.827Z,18.43
2023-08-07T07:14:30.768Z,18.33
2023-08-07T07:19:30.686Z,18.10
2023-08-07T07:24:30.682Z,18.02
2023-08-07T07:29:30.548Z,17.84
2023-08-07T07:34:30.492Z,17.75
2023-08-07T07:39:30.413Z,18.24
2023-08-07T07:44:30.373Z,19.91
2023-08-07T07:49:30.278Z,21.46
2023-08-07T07:54:30.241Z,21.35
2023-08-07T07:59:30.148Z,20.68
2023-08-07T08:04:30.218Z,19.96
2023-08-07T08:09:30.038Z,19.39
2023-08-07T08:14:31.633Z,19.03
2023-08-07T08:19:38.555Z,19.06
2023-08-07T08:24:30.850Z,19.28
2023-08-07T08:29:29.755Z,19.23
2023-08-07T08:34:29.710Z,19.14
2023-08-07T08:39:29.620Z,19.26
2023-08-07T08:44:29.581Z,19.08
2023-08-07T08:49:29.497Z,19.40
2023-08-07T08:54:29.446Z,19.81
2023-08-07T08:59:29.371Z,19.79
2023-08-07T09:04:29.318Z,19.73
2023-08-07T09:09:29.274Z,19.96
2023-08-07T09:14:29.167Z,20.16
2023-08-07T09:19:29.106Z,20.03
2023-08-07T09:24:29.050Z,19.91
2023-08-07T09:29:28.950Z,19.73
2023-08-07T09:34:28.900Z,19.48
2023-08-07T09:39:30.942Z,19.48
2023-08-07T09:44:28.758Z,19.53
2023-08-07T09:49:28.684Z,19.55
2023-08-07T09:54:28.630Z,19.44
2023-08-07T09:59:28.545Z,19.30
2023-08-07T10:04:28.487Z,19.06
2023-08-07T10:09:28.398Z,19.23
2023-08-07T10:14:28.350Z,19.63
2023-08-07T10:19:28.277Z,20.13
2023-08-07T10:24:28.213Z,20.24
2023-08-07T10:29:28.135Z,20.46
2023-08-07T10:34:28.082Z,20.39
2023-08-07T10:39:27.994Z,20.41
2023-08-07T10:44:27.949Z,20.73
2023-08-07T10:49:27.863Z,20.99
2023-08-07T10:54:27.802Z,21.62
2023-08-07T10:59:27.724Z,22.14
2023-08-07T11:04:27.705Z,22.50
2023-08-07T11:09:27.600Z,22.76
2023-08-07T11:14:27.539Z,22.88
2023-08-07T11:19:27.461Z,22.49
2023-08-07T11:24:27.403Z,22.40
2023-08-07T11:29:27.330Z,21.99
2023-08-07T11:34:27.268Z,21.55
2023-08-07T11:39:27.204Z,21.69
2023-08-07T11:44:29.259Z,22.03
2023-08-07T11:49:27.073Z,22.21
2023-08-07T11:54:27.012Z,21.97
2023-08-07T11:59:26.931Z,21.51
2023-08-07T12:04:26.911Z,21.61
2023-08-07T12:09:26.819Z,21.82
2023-08-07T12:14:26.749Z,21.55
2023-08-07T12:19:26.685Z,21.08
2023-08-07T12:24:26.618Z,20.57
2023-08-07T12:29:26.545Z,20.55
2023-08-07T12:40:35.523Z,20.21
2023-08-07T12:44:27.391Z,20.50
2023-08-07T12:49:26.282Z,20.64
2023-08-07T12:54:26.219Z,20.59
2023-08-07T12:59:26.147Z,20.29
2023-08-07T13:04:26.093Z,20.18
2023-08-07T13:09:26.006Z,19.69
2023-08-07T13:14:25.949Z,19.02
2023-08-07T13:19:25.873Z,18.70
2023-08-07T13:24:25.818Z,18.49
2023-08-07T13:29:25.733Z,18.41
2023-08-07T13:34:25.673Z,18.71
2023-08-07T13:39:25.634Z,19.03
2023-08-07T13:44:25.563Z,19.15
2023-08-07T13:49:25.480Z,19.33
2023-08-07T13:54:25.412Z,19.58
2023-08-07T13:59:25.348Z,19.53
2023-08-07T14:04:25.277Z,19.29
2023-08-07T14:09:25.207Z,19.17
2023-08-07T14:14:25.152Z,19.17
2023-08-07T14:19:25.073Z,19.30
2023-08-07T14:24:25.027Z,19.62
2023-08-07T14:29:24.939Z,19.79
2023-08-07T14:34:24.887Z,19.62
2023-08-07T14:39:24.941Z,19.32
2023-08-07T14:44:24.741Z,19.02
2023-08-07T14:49:24.676Z,18.92
2023-08-07T14:54:24.615Z,18.93
2023-08-07T14:59:24.556Z,18.88
2023-08-07T15:04:24.485Z,18.68
2023-08-07T15:09:24.416Z,18.47
2023-08-07T15:14:24.367Z,18.02
2023-08-07T15:19:24.277Z,18.02
2023-08-07T15:24:24.224Z,18.18
2023-08-07T15:29:24.153Z,18.49
2023-08-07T15:34:24.086Z,18.60
2023-08-07T15:39:24.036Z,18.70
2023-08-07T15:44:23.964Z,18.73
2023-08-07T15:49:23.892Z,18.73
2023-08-07T15:54:24.016Z,18.81
2023-08-07T15:59:23.767Z,18.86
2023-08-07T16:04:23.791Z,18.89
2023-08-07T16:09:23.630Z,18.95
2023-08-07T16:14:23.560Z,18.92
2023-08-07T16:19:23.763Z,18.95
2023-08-07T16:24:23.445Z,18.89
2023-08-07T16:29:23.357Z,18.78
2023-08-07T16:34:23.320Z,18.77
2023-08-07T16:39:23.241Z,18.63
2023-08-07T16:44:23.177Z,18.53
2023-08-07T16:49:23.105Z,18.45
2023-08-07T16:54:23.047Z,18.41
2023-08-07T16:59:22.993Z,18.50
2023-08-07T17:04:22.910Z,18.66
2023-08-07T17:09:22.838Z,18.65
2023-08-07T17:14:22.783Z,18.55
2023-08-07T17:19:22.760Z,18.40
2023-08-07T17:24:22.645Z,18.37
2023-08-07T17:29:22.575Z,18.34
2023-08-07T17:34:22.513Z,18.34
2023-08-07T17:39:22.428Z,18.41
2023-08-07T17:44:22.392Z,18.33
2023-08-07T17:49:22.304Z,18.14
2023-08-07T17:54:22.258Z,18.00
2023-08-07T17:59:22.163Z,17.81
2023-08-07T18:04:22.129Z,17.66
2023-08-07T18:09:22.030Z,17.54
2023-08-07T18:14:21.995Z,17.45
2023-08-07T18:19:22.513Z,17.33
2023-08-07T18:24:21.851Z,17.26
2023-08-07T18:29:21.766Z,17.16
2023-08-07T18:34:21.714Z,17.11
2023-08-07T18:39:21.637Z,17.05
2023-08-07T18:44:21.582Z,17.01
2023-08-07T18:49:21.506Z,16.96
2023-08-07T18:54:21.449Z,16.86
2023-08-07T18:59:21.367Z,16.75
2023-08-07T19:04:21.322Z,16.65
2023-08-07T19:09:21.234Z,16.60
2023-08-07T19:14:21.174Z,16.57
2023-08-07T19:19:21.093Z,16.63
2023-08-07T19:24:21.077Z,16.68
2023-08-07T19:29:20.970Z,16.73
2023-08-07T19:34:20.915Z,16.77
2023-08-07T19:39:20.828Z,16.80
2023-08-07T19:44:20.774Z,16.83
2023-08-07T19:49:20.696Z,16.82
2023-08-07T19:54:20.662Z,16.75
2023-08-07T19:59:20.562Z,16.71
2023-08-07T20:04:20.508Z,16.68
2023-08-07T20:09:20.427Z,16.64
2023-08-07T20:14:20.364Z,16.59
2023-08-07T20:19:20.520Z,16.56
2023-08-07T20:24:20.233Z,16.50
2023-08-07T20:29:20.194Z,16.48
2023-08-07T20:34:20.096Z,16.49
2023-08-07T20:39:20.052Z,16.42
2023-08-07T20:44:19.971Z,16.37
2023-08-07T20:49:19.926Z,16.27
2023-08-07T20:54:19.870Z,16.13
2023-08-07T20:59:19.773Z,16.05
2023-08-07T21:04:19.694Z,15.98
2023-08-07T21:09:19.646Z,15.88
2023-08-07T21:14:19.582Z,15.76
2023-08-07T21:19:19.518Z,15.64
2023-08-07T21:24:19.446Z,15.49
2023-08-07T21:29:19.391Z,15.39
2023-08-07T21:34:19.296Z,15.36
2023-08-07T21:39:19.253Z,15.34
2023-08-07T21:44:19.176Z,15.21
2023-08-07T21:49:19.120Z,15.08
2023-08-07T21:54:19.025Z,14.98
2023-08-07T21:59:18.985Z,14.84
2023-08-07T22:04:18.917Z,14.76
2023-08-07T22:09:18.859Z,14.66
2023-08-07T22:14:18.755Z,14.55
2023-08-07T22:19:18.706Z,14.45
2023-08-07T22:24:18.645Z,14.33
2023-08-07T22:29:18.584Z,14.22
2023-08-07T22:34:18.490Z,14.12
2023-08-07T22:39:18.441Z,14.02
2023-08-07T22:44:18.352Z,13.96
2023-08-07T22:49:18.307Z,13.91
2023-08-07T22:54:18.230Z,13.88
2023-08-07T22:59:18.195Z,13.80
2023-08-07T23:04:18.096Z,13.74
2023-08-07T23:09:18.022Z,13.70
2023-08-07T23:14:17.951Z,13.66
2023-08-07T23:19:17.901Z,13.64
2023-08-07T23:24:17.810Z,13.66
2023-08-07T23:29:17.752Z,13.69
2023-08-07T23:34:17.689Z,13.69
2023-08-07T23:39:17.627Z,13.64
2023-08-07T23:44:17.558Z,13.59
2023-08-07T23:49:17.502Z,13.56
2023-08-07T23:54:17.436Z,13.56
2023-08-07T23:59:17.390Z,13.56
